Time;durP1;ratioP1;P1;durP2;ratioP2;P2;SDS_P1;SDS_P2;PMS_P1;PMS_P2;Temp;Humidity;BMP_temperature;BMP_pressure;BME280_temperature;BME280_humidity;BME280_pressure;Samples;Min_cycle;Max_cycle;Signal;HPM_P1;HPM_P2
2023/10/06 00:02:56;;;;;;;14.82;2.85;;;10.60;100.00;;;;;;5002959;28;20053;-70
2023/10/06 00:05:24;;;;;;;8.15;3.83;;;10.70;100.00;;;;;;5015111;28;20136;-71
2023/10/06 00:07:51;;;;;;;14.10;2.38;;;10.70;100.00;;;;;;5003393;28;20562;-71
2023/10/06 00:10:21;;;;;;;17.70;2.40;;;10.70;100.00;;;;;;5006242;28;20897;-70
2023/10/06 00:12:53;;;;;;;10.05;2.60;;;10.80;100.00;;;;;;5005221;28;20042;-71
2023/10/06 00:15:26;;;;;;;14.18;3.15;;;10.80;100.00;;;;;;5001354;28;20182;-70
2023/10/06 00:18:00;;;;;;;7.40;2.05;;;10.80;100.00;;;;;;5005034;28;20049;-70
2023/10/06 00:20:39;;;;;;;13.80;2.58;;;10.80;100.00;;;;;;5003982;28;20137;-71
2023/10/06 00:23:14;;;;;;;17.95;2.70;;;10.90;100.00;;;;;;5002793;28;20121;-70
2023/10/06 00:25:44;;;;;;;20.95;2.47;;;10.90;100.00;;;;;;5004912;28;20127;-71
2023/10/06 00:28:19;;;;;;;9.35;2.30;;;10.90;100.00;;;;;;5004008;28;20475;-71
2023/10/06 00:30:56;;;;;;;15.25;2.60;;;10.90;100.00;;;;;;5003084;28;20050;-71
2023/10/06 00:33:32;;;;;;;18.83;2.40;;;10.90;100.00;;;;;;5005345;28;20049;-71
2023/10/06 00:36:11;;;;;;;10.68;2.55;;;10.90;100.00;;;;;;5005721;28;20068;-71
2023/10/06 00:38:39;;;;;;;23.85;2.80;;;10.90;100.00;;;;;;5006817;28;20053;-71
2023/10/06 00:41:07;;;;;;;15.38;2.58;;;11.00;100.00;;;;;;5004700;28;20050;-71
2023/10/06 00:43:36;;;;;;;14.25;2.65;;;11.00;100.00;;;;;;5005446;28;20061;-71
2023/10/06 00:46:06;;;;;;;21.02;2.45;;;11.00;100.00;;;;;;5006144;28;20054;-71
2023/10/06 00:48:39;;;;;;;8.68;2.22;;;11.00;100.00;;;;;;5006562;28;20156;-71
2023/10/06 00:51:19;;;;;;;11.40;2.60;;;11.00;100.00;;;;;;5006232;28;20680;-71
2023/10/06 00:53:52;;;;;;;8.73;2.53;;;11.00;100.00;;;;;;5003994;28;20065;-71
2023/10/06 00:56:23;;;;;;;15.73;2.50;;;11.10;100.00;;;;;;5001124;28;20094;-71
2023/10/06 00:58:52;;;;;;;10.60;2.35;;;11.10;100.00;;;;;;5004334;28;20054;-71
2023/10/06 01:01:19;;;;;;;18.83;3.28;;;11.20;100.00;;;;;;5003861;28;20054;-71
2023/10/06 01:03:54;;;;;;;6.68;2.45;;;11.20;100.00;;;;;;5000280;28;20065;-71
2023/10/06 01:06:27;;;;;;;22.33;3.47;;;11.30;100.00;;;;;;5004661;28;20078;-71
2023/10/06 01:09:06;;;;;;;13.30;3.28;;;11.30;100.00;;;;;;5003984;28;20045;-69
2023/10/06 01:12:03;;;;;;;8.95;2.65;;;11.40;100.00;;;;;;5005977;28;20063;-70
2023/10/06 01:14:34;;;;;;;12.45;3.30;;;11.50;100.00;;;;;;5000567;28;20073;-69
2023/10/06 01:19:37;;;;;;;9.93;3.15;;;11.60;100.00;;;;;;5005929;28;20046;-69
2023/10/06 01:22:28;;;;;;;16.55;3.67;;;11.60;100.00;;;;;;5004862;28;20056;-70
2023/10/06 01:24:58;;;;;;;10.07;3.53;;;11.70;100.00;;;;;;5002763;28;20153;-71
2023/10/06 01:27:28;;;;;;;19.42;4.28;;;11.70;100.00;;;;;;5004881;28;20042;-71
2023/10/06 01:32:43;;;;;;;17.45;4.20;;;11.80;100.00;;;;;;5003608;28;20069;-70
2023/10/06 01:35:49;;;;;;;15.98;4.82;;;11.80;100.00;;;;;;5025430;28;20041;-71
2023/10/06 01:38:13;;;;;;;13.43;4.68;;;11.80;100.00;;;;;;4999451;28;20119;-70
2023/10/06 01:40:52;;;;;;;23.23;5.25;;;11.80;100.00;;;;;;5003425;28;20162;-71
2023/10/06 01:43:23;;;;;;;11.18;4.43;;;11.80;100.00;;;;;;4997938;28;20046;-71
2023/10/06 01:45:51;;;;;;;18.23;4.80;;;11.80;100.00;;;;;;5004405;28;20159;-71
2023/10/06 01:50:49;;;;;;;20.45;4.53;;;11.80;100.00;;;;;;5006912;28;20042;-71
2023/10/06 01:53:18;;;;;;;12.80;5.10;;;11.90;100.00;;;;;;5002213;28;20613;-71
2023/10/06 01:55:52;;;;;;;16.13;4.90;;;11.90;100.00;;;;;;5005881;28;20046;-71
2023/10/06 01:58:19;;;;;;;14.15;4.63;;;11.90;100.00;;;;;;5003172;28;20084;-71
2023/10/06 02:00:50;;;;;;;19.00;5.32;;;11.90;100.00;;;;;;5002834;28;20082;-71
2023/10/06 02:03:17;;;;;;;13.93;4.53;;;11.90;100.00;;;;;;4996777;28;20054;-71
2023/10/06 02:05:45;;;;;;;19.70;5.03;;;11.90;100.00;;;;;;5001569;28;20049;-71
2023/10/06 02:08:20;;;;;;;12.45;4.63;;;12.00;100.00;;;;;;5003069;28;21385;-71
2023/10/06 02:10:47;;;;;;;12.32;4.97;;;12.00;100.00;;;;;;5002557;28;20046;-71
2023/10/06 02:13:20;;;;;;;11.75;5.05;;;12.00;100.00;;;;;;5002474;28;20065;-70
2023/10/06 02:15:58;;;;;;;12.13;4.43;;;12.00;100.00;;;;;;5008274;28;20139;-71
2023/10/06 02:18:40;;;;;;;15.30;5.05;;;12.00;100.00;;;;;;5002018;28;20802;-71
2023/10/06 02:21:11;;;;;;;20.08;5.18;;;12.00;100.00;;;;;;5001389;28;20068;-70
2023/10/06 02:23:40;;;;;;;16.58;4.80;;;12.10;100.00;;;;;;5002860;28;20767;-71
2023/10/06 02:26:09;;;;;;;11.77;4.70;;;12.10;100.00;;;;;;5008282;28;20053;-71
2023/10/06 02:28:43;;;;;;;11.57;4.38;;;12.10;100.00;;;;;;5008872;28;20101;-70
2023/10/06 02:31:11;;;;;;;13.27;4.28;;;12.10;100.00;;;;;;5009120;28;20618;-71
2023/10/06 02:33:47;;;;;;;13.57;4.85;;;12.10;100.00;;;;;;5004130;28;20052;-71
2023/10/06 02:36:18;;;;;;;15.60;5.32;;;12.20;100.00;;;;;;5010700;28;20057;-71
2023/10/06 02:38:46;;;;;;;19.67;5.43;;;12.20;100.00;;;;;;5008634;28;20050;-71
2023/10/06 02:41:21;;;;;;;15.48;4.50;;;12.20;100.00;;;;;;5010644;28;20132;-71
2023/10/06 02:43:53;;;;;;;15.80;5.17;;;12.20;100.00;;;;;;5006974;28;20081;-72
2023/10/06 02:46:21;;;;;;;20.27;5.40;;;12.30;100.00;;;;;;5005756;28;20311;-71
2023/10/06 02:48:49;;;;;;;19.38;5.78;;;12.30;100.00;;;;;;5022808;28;20083;-71
2023/10/06 02:51:30;;;;;;;13.38;5.30;;;12.30;100.00;;;;;;5007849;28;20137;-71
2023/10/06 02:54:21;;;;;;;18.17;5.53;;;12.30;100.00;;;;;;5007251;28;20101;-72
2023/10/06 02:56:50;;;;;;;21.25;5.68;;;12.30;100.00;;;;;;5006094;28;20038;-72
2023/10/06 02:59:21;;;;;;;17.52;6.75;;;12.40;100.00;;;;;;5009320;28;20050;-71
2023/10/06 03:02:06;;;;;;;21.65;6.13;;;12.40;100.00;;;;;;5009217;28;20111;-71
2023/10/06 03:04:36;;;;;;;12.85;6.72;;;12.40;100.00;;;;;;5006596;28;20077;-71
2023/10/06 03:07:11;;;;;;;15.63;6.75;;;12.40;100.00;;;;;;5006166;28;20093;-71
2023/10/06 03:09:43;;;;;;;16.50;6.65;;;12.50;100.00;;;;;;5008311;28;20132;-71
2023/10/06 03:14:49;;;;;;;20.05;7.20;;;12.50;100.00;;;;;;5008677;28;20099;-71
2023/10/06 03:17:19;;;;;;;19.58;6.82;;;12.50;100.00;;;;;;5012420;28;20445;-71
2023/10/06 03:20:08;;;;;;;24.17;7.32;;;12.50;100.00;;;;;;5008470;28;20157;-71
2023/10/06 03:22:38;;;;;;;20.40;7.07;;;12.50;100.00;;;;;;5009312;28;20084;-71
2023/10/06 03:25:16;;;;;;;21.70;7.82;;;12.60;100.00;;;;;;5008163;28;20060;-71
2023/10/06 03:27:53;;;;;;;15.70;7.70;;;12.60;100.00;;;;;;5011312;28;20050;-71
2023/10/06 03:30:27;;;;;;;21.00;7.93;;;12.60;100.00;;;;;;5014049;28;20045;-71
2023/10/06 03:32:54;;;;;;;30.10;8.60;;;12.60;100.00;;;;;;5008968;28;20045;-71
2023/10/06 03:35:23;;;;;;;;;;;;;;;;;;;;;
2023/10/06 03:37:51;;;;;;;20.25;9.52;;;12.60;100.00;;;;;;5006372;28;20578;-71
2023/10/06 03:40:29;;;;;;;25.88;8.57;;;12.60;100.00;;;;;;5001547;28;20073;-71
2023/10/06 03:42:59;;;;;;;21.67;8.77;;;12.60;100.00;;;;;;5001637;28;20097;-71
2023/10/06 03:45:27;;;;;;;27.40;9.75;;;12.70;100.00;;;;;;5004166;28;20053;-71
2023/10/06 03:48:08;;;;;;;27.35;10.32;;;12.70;100.00;;;;;;5004018;28;20124;-71
2023/10/06 03:50:38;;;;;;;20.65;9.38;;;12.70;100.00;;;;;;5000891;28;20050;-71
2023/10/06 03:53:11;;;;;;;25.63;9.80;;;12.70;100.00;;;;;;5003896;28;20055;-71
2023/10/06 03:55:43;;;;;;;43.00;11.27;;;12.70;100.00;;;;;;5008715;28;20049;-71
2023/10/06 03:58:12;;;;;;;26.15;11.20;;;12.70;100.00;;;;;;5006010;28;20053;-71
2023/10/06 04:00:41;;;;;;;28.52;10.40;;;12.70;100.00;;;;;;5004240;28;20050;-71
2023/10/06 04:03:13;;;;;;;31.95;11.63;;;12.70;100.00;;;;;;5005329;28;20061;-70
2023/10/06 04:05:44;;;;;;;33.33;11.30;;;12.70;100.00;;;;;;5003817;28;20050;-71
2023/10/06 04:08:14;;;;;;;35.55;12.55;;;12.80;100.00;;;;;;5002193;28;20050;-71
2023/10/06 04:10:42;;;;;;;33.17;12.40;;;12.80;100.00;;;;;;5002845;28;20053;-71
2023/10/06 04:13:10;;;;;;;31.40;12.02;;;12.80;100.00;;;;;;5002653;28;20089;-71
2023/10/06 04:15:38;;;;;;;31.15;11.55;;;12.80;100.00;;;;;;5002560;28;20565;-70
2023/10/06 04:18:11;;;;;;;26.77;12.05;;;12.80;100.00;;;;;;5006498;28;20871;-71
2023/10/06 04:20:42;;;;;;;43.35;13.35;;;12.80;100.00;;;;;;5004446;28;20060;-71
2023/10/06 04:23:14;;;;;;;33.13;13.88;;;12.80;100.00;;;;;;4998474;28;20061;-71
2023/10/06 04:25:41;;;;;;;36.63;14.10;;;12.80;100.00;;;;;;5002037;28;20056;-71
2023/10/06 04:28:11;;;;;;;30.67;12.20;;;12.80;100.00;;;;;;5003809;28;20057;-71
2023/10/06 04:30:38;;;;;;;42.13;14.75;;;12.80;100.00;;;;;;5002668;28;20085;-71
2023/10/06 04:33:05;;;;;;;39.72;14.80;;;12.90;100.00;;;;;;5003231;28;20050;-71
2023/10/06 04:35:32;;;;;;;32.20;14.75;;;12.90;100.00;;;;;;5001124;28;20087;-71
2023/10/06 04:38:05;;;;;;;38.28;15.07;;;12.90;100.00;;;;;;5001939;28;20054;-71
2023/10/06 04:40:32;;;;;;;40.00;14.65;;;12.90;100.00;;;;;;5001264;28;20046;-71
2023/10/06 04:42:59;;;;;;;40.20;15.95;;;12.90;100.00;;;;;;5004895;28;20112;-71
2023/10/06 04:45:31;;;;;;;36.13;14.02;;;12.90;100.00;;;;;;5002291;28;20156;-71
2023/10/06 04:48:00;;;;;;;38.08;15.27;;;13.00;100.00;;;;;;5001295;28;20092;-73
2023/10/06 04:50:29;;;;;;;39.30;14.82;;;13.00;100.00;;;;;;5001808;28;20058;-71
2023/10/06 04:52:56;;;;;;;42.40;14.32;;;13.00;100.00;;;;;;5004607;28;20081;-71
2023/10/06 04:55:23;;;;;;;37.80;13.90;;;13.00;100.00;;;;;;5001881;28;20045;-71
2023/10/06 04:57:50;;;;;;;32.03;13.50;;;13.00;100.00;;;;;;5001205;28;20073;-72
2023/10/06 05:00:20;;;;;;;40.25;14.15;;;13.00;100.00;;;;;;5003219;28;20061;-71
2023/10/06 05:02:50;;;;;;;40.17;14.77;;;13.00;100.00;;;;;;5002191;28;20342;-73
2023/10/06 05:05:20;;;;;;;41.50;13.98;;;12.90;100.00;;;;;;5003618;28;20701;-71
2023/10/06 05:07:51;;;;;;;35.95;13.40;;;12.90;100.00;;;;;;5001169;28;20408;-76
2023/10/06 05:10:21;;;;;;;35.65;14.25;;;13.00;100.00;;;;;;5000181;28;20058;-72
2023/10/06 05:12:48;;;;;;;38.13;13.00;;;12.90;100.00;;;;;;5004693;28;20481;-75
2023/10/06 05:15:23;;;;;;;32.10;12.20;;;12.90;100.00;;;;;;5004340;28;20135;-72
2023/10/06 05:17:56;;;;;;;28.35;13.27;;;12.90;100.00;;;;;;5003331;28;20045;-71
2023/10/06 05:20:27;;;;;;;35.30;14.02;;;12.90;100.00;;;;;;5001353;28;20056;-72
2023/10/06 05:22:54;;;;;;;37.95;13.02;;;12.90;100.00;;;;;;5003326;28;20107;-72
2023/10/06 05:25:22;;;;;;;39.40;14.75;;;12.90;100.00;;;;;;4994036;28;20054;-72
2023/10/06 05:27:50;;;;;;;35.70;12.68;;;12.90;100.00;;;;;;5003152;28;20131;-73
2023/10/06 05:30:17;;;;;;;32.90;13.48;;;12.90;100.00;;;;;;5003451;28;20046;-70
2023/10/06 05:32:44;;;;;;;35.80;13.48;;;12.90;100.00;;;;;;5000660;28;20201;-70
2023/10/06 05:35:13;;;;;;;36.13;13.90;;;12.90;100.00;;;;;;5001805;28;20046;-70
2023/10/06 05:37:44;;;;;;;34.28;13.07;;;12.90;100.00;;;;;;5000192;28;20075;-71
2023/10/06 05:40:12;;;;;;;36.47;14.35;;;13.00;100.00;;;;;;5005958;28;20556;-76
2023/10/06 05:42:40;;;;;;;33.10;14.15;;;12.90;100.00;;;;;;5005798;28;20074;-75
2023/10/06 05:45:18;;;;;;;28.90;13.18;;;12.90;100.00;;;;;;5004815;28;20057;-75
2023/10/06 05:47:46;;;;;;;39.60;13.00;;;13.00;100.00;;;;;;5006743;28;20116;-75
2023/10/06 05:50:29;;;;;;;26.60;12.48;;;12.90;100.00;;;;;;5003992;28;20050;-76
2023/10/06 05:53:01;;;;;;;42.42;13.73;;;13.00;100.00;;;;;;5005962;28;20049;-75
2023/10/06 05:55:30;;;;;;;36.72;12.80;;;13.00;100.00;;;;;;5007277;28;20058;-75
2023/10/06 05:58:00;;;;;;;38.17;12.50;;;13.00;100.00;;;;;;5009993;28;20100;-75
2023/10/06 06:00:31;;;;;;;30.88;12.85;;;13.00;100.00;;;;;;5015779;28;20072;-75
2023/10/06 06:03:04;;;;;;;34.38;12.20;;;13.00;100.00;;;;;;5016620;28;20062;-75
2023/10/06 06:05:33;;;;;;;33.85;11.93;;;13.00;100.00;;;;;;5005892;28;20104;-75
2023/10/06 06:08:08;;;;;;;30.83;11.70;;;13.10;100.00;;;;;;5004285;28;20631;-74
2023/10/06 06:10:36;;;;;;;32.38;11.95;;;13.10;100.00;;;;;;5004201;28;20131;-75
2023/10/06 06:13:04;;;;;;;30.20;11.77;;;13.10;100.00;;;;;;5004509;28;20690;-75
2023/10/06 06:15:31;;;;;;;33.97;12.68;;;13.10;100.00;;;;;;5006490;28;20038;-75
2023/10/06 06:17:59;;;;;;;33.42;12.32;;;13.10;100.00;;;;;;4999555;28;20046;-75
2023/10/06 06:20:26;;;;;;;35.05;12.30;;;13.20;100.00;;;;;;5006495;28;20054;-75
2023/10/06 06:22:55;;;;;;;27.13;12.55;;;13.20;100.00;;;;;;5006648;28;20417;-75
2023/10/06 06:25:28;;;;;;;29.65;12.27;;;13.20;100.00;;;;;;5004259;28;20530;-75
2023/10/06 06:27:59;;;;;;;31.63;12.02;;;13.30;100.00;;;;;;5005668;28;20061;-74
2023/10/06 06:30:26;;;;;;;31.08;12.43;;;13.30;100.00;;;;;;5003921;28;20050;-75
2023/10/06 06:32:54;;;;;;;30.33;12.52;;;13.30;100.00;;;;;;5004187;28;20111;-75
2023/10/06 06:35:23;;;;;;;36.20;11.68;;;13.30;100.00;;;;;;5005347;28;20483;-75
2023/10/06 06:37:56;;;;;;;41.97;13.10;;;13.30;100.00;;;;;;5006042;28;20045;-75
2023/10/06 06:40:26;;;;;;;30.33;11.95;;;13.30;100.00;;;;;;5007288;28;20052;-75
2023/10/06 06:42:53;;;;;;;29.95;11.93;;;13.30;100.00;;;;;;5006257;28;20058;-75
2023/10/06 06:45:20;;;;;;;32.00;12.43;;;13.30;100.00;;;;;;5006451;28;20065;-76
2023/10/06 06:47:47;;;;;;;24.40;11.40;;;13.30;100.00;;;;;;5000915;28;20046;-76
2023/10/06 06:50:17;;;;;;;33.67;12.48;;;13.30;100.00;;;;;;5006681;28;20747;-75
2023/10/06 06:52:49;;;;;;;36.25;11.90;;;13.30;100.00;;;;;;5007108;28;20140;-76
2023/10/06 06:55:17;;;;;;;31.05;11.88;;;13.30;100.00;;;;;;5010387;28;20050;-75
2023/10/06 06:57:45;;;;;;;36.60;11.98;;;13.30;100.00;;;;;;5007501;28;20800;-76
2023/10/06 07:00:24;;;;;;;33.95;13.00;;;13.40;100.00;;;;;;5008451;28;20053;-76
2023/10/06 07:02:52;;;;;;;25.67;12.60;;;13.40;99.90;;;;;;5008866;28;20081;-75
2023/10/06 07:05:21;;;;;;;30.23;12.13;;;13.40;99.30;;;;;;5007999;28;20056;-75
2023/10/06 07:07:52;;;;;;;21.80;11.23;;;13.40;99.50;;;;;;5007494;28;20077;-75
2023/10/06 07:10:22;;;;;;;31.92;11.23;;;13.40;98.40;;;;;;5006156;28;20050;-76
2023/10/06 07:12:52;;;;;;;21.90;10.02;;;13.50;98.50;;;;;;5010833;28;20061;-75
2023/10/06 07:15:21;;;;;;;31.27;12.02;;;13.50;98.40;;;;;;5008703;28;20108;-76
2023/10/06 07:17:51;;;;;;;32.28;11.13;;;13.50;98.20;;;;;;5007403;28;20050;-76
2023/10/06 07:20:23;;;;;;;24.55;10.30;;;13.50;98.10;;;;;;5009626;28;20050;-76
2023/10/06 07:22:54;;;;;;;31.67;10.18;;;13.50;97.30;;;;;;5009884;28;20058;-75
2023/10/06 07:25:24;;;;;;;23.27;9.73;;;13.50;98.20;;;;;;5004553;28;20053;-75
2023/10/06 07:27:53;;;;;;;23.58;9.60;;;13.60;97.70;;;;;;5007854;28;20129;-75
2023/10/06 07:30:22;;;;;;;22.77;8.82;;;13.60;98.10;;;;;;5009260;28;20049;-77
2023/10/06 07:32:54;;;;;;;23.02;8.60;;;13.50;97.40;;;;;;5009470;28;20054;-76
2023/10/06 07:35:43;;;;;;;20.02;8.35;;;13.60;97.80;;;;;;5009155;28;20073;-76
2023/10/06 07:38:10;;;;;;;26.38;9.77;;;13.60;97.50;;;;;;5007093;28;20060;-77
2023/10/06 07:40:38;;;;;;;17.83;9.10;;;13.60;97.50;;;;;;5011805;28;20054;-76
2023/10/06 07:43:07;;;;;;;22.58;8.82;;;13.50;97.90;;;;;;5005610;28;20050;-77
2023/10/06 07:45:34;;;;;;;22.17;7.90;;;13.50;99.50;;;;;;5007226;28;20214;-76
2023/10/06 07:48:02;;;;;;;21.15;8.05;;;13.40;100.00;;;;;;5007809;28;20595;-75
2023/10/06 07:50:34;;;;;;;22.48;8.95;;;13.30;100.00;;;;;;5007614;28;20042;-74
2023/10/06 07:53:01;;;;;;;19.83;8.98;;;13.20;100.00;;;;;;5008928;28;20713;-74
2023/10/06 07:55:28;;;;;;;21.55;9.18;;;13.20;100.00;;;;;;5002460;28;20124;-74
2023/10/06 07:57:57;;;;;;;21.63;8.57;;;13.10;100.00;;;;;;5008826;28;20835;-74
2023/10/06 08:00:32;;;;;;;24.83;8.88;;;13.10;100.00;;;;;;5009355;28;20046;-74
2023/10/06 08:03:00;;;;;;;19.60;8.45;;;13.10;100.00;;;;;;5006987;28;20081;-75
2023/10/06 08:05:28;;;;;;;23.30;9.57;;;13.10;100.00;;;;;;5004726;28;20438;-74
2023/10/06 08:08:00;;;;;;;39.85;9.18;;;13.10;100.00;;;;;;5010017;28;20127;-75
2023/10/06 08:10:30;;;;;;;22.95;9.07;;;13.10;100.00;;;;;;5007433;28;20050;-75
2023/10/06 08:13:01;;;;;;;26.45;9.55;;;13.10;100.00;;;;;;5007954;28;20141;-74
2023/10/06 08:15:29;;;;;;;23.95;8.52;;;13.10;100.00;;;;;;5012823;28;20587;-74
2023/10/06 08:17:56;;;;;;;22.23;9.07;;;13.20;100.00;;;;;;5009672;28;20068;-74
2023/10/06 08:20:25;;;;;;;16.60;9.18;;;13.20;100.00;;;;;;5002674;28;20137;-74
2023/10/06 08:22:53;;;;;;;15.93;7.70;;;13.30;100.00;;;;;;5007949;28;20054;-74
2023/10/06 08:25:23;;;;;;;19.00;7.78;;;13.30;100.00;;;;;;5009415;28;20156;-74
2023/10/06 08:27:51;;;;;;;20.95;9.02;;;13.40;100.00;;;;;;5008143;28;20056;-74
2023/10/06 08:30:19;;;;;;;27.40;8.30;;;13.50;100.00;;;;;;5008695;28;20111;-74
2023/10/06 08:32:49;;;;;;;19.35;8.70;;;13.50;100.00;;;;;;5006260;28;20042;-74
2023/10/06 08:35:16;;;;;;;26.73;8.88;;;13.60;100.00;;;;;;5007938;28;20131;-74
2023/10/06 08:37:48;;;;;;;24.83;8.23;;;13.60;100.00;;;;;;5008729;28;20077;-74
2023/10/06 08:40:16;;;;;;;19.52;8.43;;;13.60;100.00;;;;;;5008570;28;20054;-74
2023/10/06 08:42:51;;;;;;;17.52;7.88;;;13.70;100.00;;;;;;5011577;28;20042;-74
2023/10/06 08:45:22;;;;;;;27.47;7.30;;;13.80;100.00;;;;;;5007401;28;20471;-74
2023/10/06 08:47:59;;;;;;;21.42;6.95;;;13.90;98.60;;;;;;5006732;28;20049;-74
2023/10/06 08:50:33;;;;;;;13.60;6.97;;;13.90;97.70;;;;;;5005121;28;20700;-74
2023/10/06 08:53:04;;;;;;;17.63;7.20;;;13.90;98.90;;;;;;5008743;28;20687;-75
2023/10/06 08:55:32;;;;;;;17.77;5.95;;;14.00;97.80;;;;;;5005435;28;20136;-75
2023/10/06 08:57:59;;;;;;;19.30;6.88;;;14.00;96.80;;;;;;5006546;28;20054;-74
2023/10/06 09:00:34;;;;;;;18.10;5.95;;;14.10;96.30;;;;;;5008440;28;20147;-74
2023/10/06 09:03:07;;;;;;;19.65;6.00;;;14.20;97.30;;;;;;5008247;28;20061;-74
2023/10/06 09:05:50;;;;;;;16.80;6.55;;;14.20;97.10;;;;;;5008275;28;20511;-74
2023/10/06 09:08:20;;;;;;;13.10;5.80;;;14.40;96.70;;;;;;5008913;28;20142;-74
2023/10/06 09:10:52;;;;;;;11.00;5.75;;;14.50;95.20;;;;;;5008888;28;20399;-74
2023/10/06 09:13:21;;;;;;;20.70;6.18;;;14.50;96.40;;;;;;5008511;28;20356;-74
2023/10/06 09:16:02;;;;;;;11.52;5.38;;;14.60;94.60;;;;;;5010059;28;20045;-74
2023/10/06 09:18:34;;;;;;;17.55;5.93;;;14.60;94.80;;;;;;5009739;28;20050;-75
2023/10/06 09:21:13;;;;;;;10.20;5.45;;;14.60;95.30;;;;;;5009319;28;20054;-74
2023/10/06 09:23:40;;;;;;;18.48;5.63;;;14.60;95.50;;;;;;5025731;28;20056;-73
2023/10/06 09:26:11;;;;;;;15.52;5.53;;;14.70;94.20;;;;;;5006379;28;20131;-73
2023/10/06 09:28:52;;;;;;;20.27;5.53;;;14.70;94.00;;;;;;5014731;28;20049;-73
2023/10/06 09:31:46;;;;;;;11.95;5.03;;;14.80;93.80;;;;;;5009468;28;20531;-74
2023/10/06 09:34:23;;;;;;;12.38;5.07;;;14.80;91.80;;;;;;5003644;28;20129;-73
2023/10/06 09:36:51;;;;;;;12.48;5.50;;;14.90;93.10;;;;;;5010830;28;20046;-72
2023/10/06 09:39:32;;;;;;;10.73;5.03;;;14.80;92.50;;;;;;5008062;28;20100;-72
2023/10/06 09:42:05;;;;;;;19.83;5.82;;;14.90;93.00;;;;;;5006391;28;20050;-72
2023/10/06 09:44:35;;;;;;;15.27;4.80;;;14.90;92.60;;;;;;5006945;28;20041;-72
2023/10/06 09:47:03;;;;;;;15.20;4.93;;;14.90;92.10;;;;;;5007451;28;20069;-72
2023/10/06 09:49:32;;;;;;;17.98;5.50;;;14.90;93.10;;;;;;5005107;28;20920;-71
2023/10/06 09:52:03;;;;;;;13.63;5.78;;;14.90;93.30;;;;;;5003511;28;20046;-73
2023/10/06 09:54:31;;;;;;;14.40;5.72;;;15.00;92.60;;;;;;5006888;28;20045;-74
2023/10/06 09:56:59;;;;;;;13.00;5.15;;;14.90;92.10;;;;;;5007036;28;20049;-74
2023/10/06 09:59:27;;;;;;;12.40;4.53;;;14.90;92.20;;;;;;5006143;28;20057;-73
2023/10/06 10:01:56;;;;;;;11.30;4.50;;;14.90;93.30;;;;;;5006663;28;20103;-72
2023/10/06 10:04:29;;;;;;;16.60;4.60;;;14.90;92.80;;;;;;5007818;28;20153;-73
2023/10/06 10:06:58;;;;;;;13.18;4.95;;;14.90;93.30;;;;;;5005781;28;20446;-73
2023/10/06 10:09:28;;;;;;;9.52;4.28;;;14.80;92.90;;;;;;5003065;28;20054;-73
2023/10/06 10:12:20;;;;;;;11.43;5.10;;;14.80;92.80;;;;;;5007602;28;20056;-74
2023/10/06 10:15:24;;;;;;;19.00;4.30;;;14.80;93.00;;;;;;5002847;28;20053;-73
2023/10/06 10:18:00;;;;;;;16.25;4.38;;;14.80;93.90;;;;;;4999585;28;20107;-72
2023/10/06 10:20:27;;;;;;;8.63;4.25;;;14.80;93.10;;;;;;4999828;28;20050;-72
2023/10/06 10:22:56;;;;;;;18.00;5.20;;;14.80;92.30;;;;;;5004934;28;20108;-73
2023/10/06 10:25:24;;;;;;;15.10;4.03;;;14.80;92.70;;;;;;5006644;28;20052;-73
2023/10/06 10:28:27;;;;;;;11.57;4.25;;;14.80;92.90;;;;;;5007527;28;20830;-72
2023/10/06 10:30:58;;;;;;;13.63;4.38;;;14.80;92.10;;;;;;5009547;28;20050;-72
2023/10/06 10:33:29;;;;;;;11.90;3.50;;;14.90;92.30;;;;;;5010558;28;20049;-71
2023/10/06 10:36:18;;;;;;;9.25;3.33;;;14.80;92.30;;;;;;5007739;28;20121;-73
2023/10/06 10:38:55;;;;;;;11.23;4.18;;;14.80;93.40;;;;;;5000639;28;20049;-72
2023/10/06 10:41:26;;;;;;;17.13;3.88;;;14.80;92.70;;;;;;4997841;28;20099;-73
2023/10/06 10:43:56;;;;;;;10.45;3.67;;;14.80;93.40;;;;;;5005900;28;20085;-73
2023/10/06 10:46:46;;;;;;;8.07;3.42;;;14.80;92.10;;;;;;5001678;28;20050;-72
2023/10/06 10:49:13;;;;;;;12.13;3.55;;;14.80;91.50;;;;;;5009822;28;20112;-72
2023/10/06 10:51:58;;;;;;;13.00;3.80;;;14.70;92.10;;;;;;5009450;28;20119;-71
2023/10/06 10:54:31;;;;;;;13.55;3.60;;;14.70;91.80;;;;;;5002672;28;20100;-69
2023/10/06 10:57:13;;;;;;;7.50;3.08;;;14.70;92.00;;;;;;5007564;28;20486;-69
2023/10/06 11:02:40;;;;;;;11.73;3.47;;;14.70;92.70;;;;;;5005397;28;20053;-69
2023/10/06 11:05:07;;;;;;;8.02;3.63;;;14.60;91.80;;;;;;4996662;28;20101;-72
2023/10/06 11:07:35;;;;;;;17.70;3.60;;;14.70;93.10;;;;;;5008801;28;20576;-74
2023/10/06 11:10:03;;;;;;;9.27;3.97;;;14.70;93.00;;;;;;5009011;28;20554;-73
2023/10/06 11:12:30;;;;;;;10.15;3.53;;;14.70;93.30;;;;;;5008682;28;20045;-73
2023/10/06 11:15:14;;;;;;;13.60;3.95;;;14.70;94.20;;;;;;5009358;28;20081;-74
2023/10/06 11:17:42;;;;;;;10.85;3.50;;;14.60;95.00;;;;;;5000592;28;20161;-73
2023/10/06 11:20:15;;;;;;;10.80;4.00;;;14.50;95.40;;;;;;5002630;28;20054;-73
2023/10/06 11:22:59;;;;;;;10.95;4.00;;;14.50;95.50;;;;;;5005054;28;20072;-72
2023/10/06 11:25:28;;;;;;;15.73;4.07;;;14.40;96.20;;;;;;5009054;28;20057;-75
2023/10/06 11:28:04;;;;;;;10.90;3.70;;;14.40;95.90;;;;;;5010411;28;20046;-75
2023/10/06 11:30:33;;;;;;;11.20;3.47;;;14.40;94.90;;;;;;5003240;28;20053;-74
2023/10/06 11:33:02;;;;;;;11.43;4.03;;;14.40;94.90;;;;;;5009468;28;20454;-73
2023/10/06 11:35:31;;;;;;;9.10;3.60;;;14.40;95.10;;;;;;5011050;28;20482;-71
2023/10/06 11:37:58;;;;;;;8.60;3.90;;;14.40;95.50;;;;;;5006993;28;20203;-73
2023/10/06 11:40:26;;;;;;;12.10;3.60;;;14.40;96.40;;;;;;5009343;28;20055;-72
2023/10/06 11:42:53;;;;;;;12.65;4.10;;;14.30;96.00;;;;;;5007444;28;20062;-73
2023/10/06 11:45:26;;;;;;;16.65;3.92;;;14.30;96.40;;;;;;4999892;28;20510;-73
2023/10/06 11:47:54;;;;;;;14.60;3.58;;;14.30;97.00;;;;;;5006603;28;20057;-71
2023/10/06 11:50:28;;;;;;;9.43;2.80;;;14.30;97.00;;;;;;5008888;28;20049;-75
2023/10/06 11:52:56;;;;;;;16.17;4.13;;;14.30;95.60;;;;;;5011116;28;20506;-72
2023/10/06 11:55:31;;;;;;;11.95;4.07;;;14.40;96.30;;;;;;5009458;28;20096;-71
2023/10/06 11:58:00;;;;;;;10.73;3.88;;;14.40;96.40;;;;;;5005521;28;20080;-71
2023/10/06 12:00:40;;;;;;;13.85;4.00;;;14.50;98.40;;;;;;5007455;28;20695;-71
2023/10/06 12:03:10;;;;;;;13.40;4.47;;;14.40;98.90;;;;;;5011086;28;20050;-72
2023/10/06 12:05:43;;;;;;;10.00;3.90;;;14.40;99.80;;;;;;5006753;28;20057;-73
2023/10/06 12:08:12;;;;;;;17.83;4.40;;;14.30;100.00;;;;;;5007146;28;20128;-71
2023/10/06 12:10:50;;;;;;;13.48;4.53;;;14.30;100.00;;;;;;5004296;28;20082;-71
2023/10/06 12:13:18;;;;;;;12.55;4.38;;;14.20;100.00;;;;;;5009463;28;20461;-71
2023/10/06 12:15:46;;;;;;;15.73;4.50;;;14.20;100.00;;;;;;5009304;28;20077;-74
2023/10/06 12:18:15;;;;;;;14.60;4.93;;;14.10;100.00;;;;;;5009030;28;20132;-71
2023/10/06 12:20:42;;;;;;;12.30;4.25;;;14.20;100.00;;;;;;5017236;23;20064;-67
2023/10/06 12:23:10;;;;;;;18.05;4.68;;;14.10;100.00;;;;;;4981083;28;20050;-66
2023/10/06 12:25:37;;;;;;;11.70;4.78;;;14.10;100.00;;;;;;5005212;28;20048;-66
2023/10/06 12:28:04;;;;;;;12.43;4.53;;;14.10;100.00;;;;;;5003737;28;20133;-66
2023/10/06 12:30:31;;;;;;;14.43;4.22;;;14.10;100.00;;;;;;5017526;28;20050;-67
2023/10/06 12:32:58;;;;;;;8.50;4.55;;;14.10;100.00;;;;;;4984722;28;20057;-73
2023/10/06 12:35:28;;;;;;;11.95;4.50;;;14.10;100.00;;;;;;4995559;28;20093;-69
2023/10/06 12:37:56;;;;;;;13.18;5.07;;;14.10;100.00;;;;;;5006677;28;20046;-69
2023/10/06 12:40:23;;;;;;;17.58;5.03;;;14.10;100.00;;;;;;5000987;28;20046;-68
2023/10/06 12:42:50;;;;;;;17.67;5.20;;;14.10;100.00;;;;;;5009529;28;20072;-68
2023/10/06 12:45:20;;;;;;;10.27;4.40;;;14.10;100.00;;;;;;5002023;28;20119;-68
2023/10/06 12:47:50;;;;;;;9.25;4.72;;;14.00;100.00;;;;;;5001452;28;20065;-67
2023/10/06 12:50:23;;;;;;;12.38;4.32;;;14.00;100.00;;;;;;4999905;28;20200;-69
2023/10/06 12:52:55;;;;;;;8.05;3.70;;;14.00;100.00;;;;;;4995790;28;20046;-68
2023/10/06 12:55:25;;;;;;;10.77;3.78;;;14.00;100.00;;;;;;4981190;28;20843;-68
2023/10/06 12:57:54;;;;;;;11.38;4.07;;;13.90;100.00;;;;;;5005663;28;20054;-68
2023/10/06 13:00:21;;;;;;;10.52;3.95;;;13.90;100.00;;;;;;5003603;28;20050;-68
2023/10/06 13:02:48;;;;;;;7.15;3.38;;;13.90;100.00;;;;;;5005468;28;20104;-68
2023/10/06 13:05:22;;;;;;;8.38;3.97;;;13.90;100.00;;;;;;5000311;28;20058;-68